createdAt,value
2018-05-13T00:01:27.278Z,8.02
2018-05-13T00:03:54.766Z,8.38
2018-05-13T00:06:22.253Z,7.50
2018-05-13T00:08:49.746Z,7.95
2018-05-13T00:11:17.228Z,8.15
2018-05-13T00:13:45.494Z,8.02
2018-05-13T00:16:13.744Z,8.23
2018-05-13T00:18:42.010Z,9.00
2018-05-13T00:21:09.487Z,7.60
2018-05-13T00:23:36.985Z,8.35
2018-05-13T00:26:06.136Z,8.48
2018-05-13T00:28:33.665Z,8.52
2018-05-13T00:31:01.174Z,7.25
2018-05-13T00:33:28.668Z,7.90
2018-05-13T00:35:56.913Z,9.05
2018-05-13T00:38:24.419Z,8.93
2018-05-13T00:40:51.909Z,9.15
2018-05-13T00:43:19.401Z,8.73
2018-05-13T00:45:46.883Z,8.70
2018-05-13T00:48:15.145Z,8.55
2018-05-13T00:50:43.411Z,9.07
2018-05-13T00:53:10.922Z,8.65
2018-05-13T00:55:38.404Z,9.00
2018-05-13T00:58:05.885Z,7.97
2018-05-13T01:00:34.153Z,9.38
2018-05-13T01:03:01.629Z,9.30
2018-05-13T01:05:29.893Z,9.13
2018-05-13T01:07:57.374Z,9.55
2018-05-13T01:10:25.637Z,10.80
2018-05-13T01:12:53.892Z,11.18
2018-05-13T01:15:21.433Z,10.60
2018-05-13T01:17:48.922Z,10.18
2018-05-13T01:20:16.421Z,10.38
2018-05-13T01:22:43.902Z,10.70
2018-05-13T01:25:11.404Z,10.00
2018-05-13T01:27:38.891Z,10.02
2018-05-13T01:30:07.163Z,10.75
2018-05-13T01:32:35.411Z,10.38
2018-05-13T01:35:02.916Z,10.63
2018-05-13T01:37:30.396Z,10.27
2018-05-13T01:39:57.894Z,9.75
2018-05-13T01:42:25.375Z,9.10
2018-05-13T01:44:53.642Z,8.73
2018-05-13T01:47:21.889Z,8.70
2018-05-13T01:49:49.386Z,6.85
2018-05-13T01:52:17.629Z,7.35
2018-05-13T01:54:45.132Z,6.90
2018-05-13T01:57:12.617Z,7.28
2018-05-13T01:59:40.098Z,6.97
2018-05-13T02:02:07.598Z,7.35
2018-05-13T02:04:35.841Z,6.68
2018-05-13T02:07:03.338Z,6.70
2018-05-13T02:09:31.588Z,7.53
2018-05-13T02:11:59.081Z,6.22
2018-05-13T02:14:27.333Z,6.40
2018-05-13T02:16:54.828Z,6.72
2018-05-13T02:19:22.305Z,6.47
2018-05-13T02:21:49.802Z,6.15
2018-05-13T02:24:17.289Z,6.37
2018-05-13T02:26:45.550Z,6.80
2018-05-13T02:29:13.030Z,6.22
2018-05-13T02:31:41.301Z,7.00
2018-05-13T02:34:09.554Z,6.10
2018-05-13T02:36:37.053Z,5.80
2018-05-13T02:39:04.534Z,6.78
2018-05-13T02:41:32.032Z,7.22
2018-05-13T02:44:00.299Z,6.00
2018-05-13T02:46:27.802Z,6.37
2018-05-13T02:48:55.281Z,7.05
2018-05-13T02:51:22.780Z,7.15
2018-05-13T02:53:50.270Z,7.00
2018-05-13T02:56:18.541Z,6.47
2018-05-13T02:58:46.785Z,6.00
2018-05-13T03:01:14.291Z,6.37
2018-05-13T03:03:41.777Z,6.12
2018-05-13T03:06:09.283Z,6.68
2018-05-13T03:08:36.765Z,6.30
2018-05-13T03:11:05.010Z,6.30
2018-05-13T03:13:32.504Z,5.45
2018-05-13T03:16:00.750Z,6.22
2018-05-13T03:18:28.241Z,6.40
2018-05-13T03:20:55.724Z,6.75
2018-05-13T03:23:23.229Z,7.10
2018-05-13T03:25:50.704Z,6.90
2018-05-13T03:28:18.973Z,6.75
2018-05-13T03:30:47.233Z,6.95
2018-05-13T03:33:14.737Z,6.85
2018-05-13T03:35:42.225Z,6.80
2018-05-13T03:38:09.717Z,6.20
2018-05-13T03:40:37.201Z,7.18
2018-05-13T03:43:05.457Z,5.97
2018-05-13T03:45:32.936Z,6.78
2018-05-13T03:48:01.201Z,5.95
2018-05-13T03:50:29.462Z,5.93
2018-05-13T03:52:56.961Z,6.62
2018-05-13T03:55:24.439Z,5.75
2018-05-13T03:57:51.929Z,5.90
2018-05-13T04:00:19.409Z,6.07
2018-05-13T04:02:46.919Z,6.35
2018-05-13T04:05:14.400Z,6.40
2018-05-13T04:07:48.561Z,6.50
2018-05-13T04:10:28.845Z,5.47
2018-05-13T04:13:08.115Z,6.18
2018-05-13T04:15:35.594Z,5.75
2018-05-13T04:18:03.091Z,5.37
2018-05-13T04:20:30.573Z,4.90
2018-05-13T04:22:58.069Z,5.30
2018-05-13T04:25:25.546Z,4.82
2018-05-13T04:27:53.809Z,4.50
2018-05-13T04:30:21.304Z,5.28
2018-05-13T04:32:49.626Z,5.10
2018-05-13T04:35:17.121Z,5.70
2018-05-13T04:37:45.369Z,4.97
2018-05-13T04:40:12.863Z,4.20
2018-05-13T04:42:41.105Z,5.05
2018-05-13T04:45:08.597Z,5.10
2018-05-13T04:47:36.845Z,5.80
2018-05-13T04:50:04.341Z,5.47
2018-05-13T04:52:32.589Z,5.15
2018-05-13T04:55:00.085Z,5.00
2018-05-13T04:57:27.566Z,5.55
2018-05-13T04:59:55.052Z,5.35
2018-05-13T05:02:22.543Z,5.05
2018-05-13T05:04:50.805Z,5.15
2018-05-13T05:07:18.287Z,5.03
2018-05-13T05:09:46.549Z,5.37
2018-05-13T05:12:14.799Z,4.68
2018-05-13T05:14:42.294Z,4.60
2018-05-13T05:17:10.539Z,4.70
2018-05-13T05:19:38.033Z,5.30
2018-05-13T05:22:06.283Z,4.65
2018-05-13T05:24:33.773Z,5.07
2018-05-13T05:27:01.251Z,4.07
2018-05-13T05:29:28.749Z,4.30
2018-05-13T05:31:56.225Z,4.45
2018-05-13T05:34:23.721Z,5.35
2018-05-13T05:36:51.197Z,5.25
2018-05-13T05:39:18.678Z,4.87
2018-05-13T05:41:46.172Z,5.37
2018-05-13T05:44:14.418Z,5.45
2018-05-13T05:46:41.956Z,6.50
2018-05-13T05:49:09.424Z,6.00
2018-05-13T05:51:36.944Z,6.47
2018-05-13T05:54:05.180Z,6.10
2018-05-13T05:56:32.680Z,5.97
2018-05-13T05:59:00.927Z,5.65
2018-05-13T06:01:28.431Z,6.10
2018-05-13T06:03:55.905Z,5.00
2018-05-13T06:06:23.405Z,5.93
2018-05-13T06:08:50.885Z,5.57
2018-05-13T06:11:19.149Z,5.80
2018-05-13T06:13:47.401Z,4.93
2018-05-13T06:16:14.901Z,5.75
2018-05-13T06:18:43.150Z,4.55
2018-05-13T06:21:10.641Z,4.80
2018-05-13T06:23:38.897Z,5.40
2018-05-13T06:26:07.157Z,5.28
2018-05-13T06:28:34.633Z,5.20
2018-05-13T06:31:02.909Z,5.25
2018-05-13T06:33:30.380Z,5.75
2018-05-13T06:35:58.637Z,5.90
2018-05-13T06:38:26.113Z,5.90
2018-05-13T06:40:54.378Z,5.95
2018-05-13T06:43:21.862Z,6.43
2018-05-13T06:45:50.121Z,5.70
2018-05-13T06:48:17.597Z,6.37
2018-05-13T06:50:45.867Z,6.53
2018-05-13T06:53:14.101Z,5.53
2018-05-13T06:55:41.581Z,7.40
2018-05-13T06:58:09.101Z,6.55
2018-05-13T07:00:36.577Z,6.57
2018-05-13T07:03:04.074Z,6.40
2018-05-13T07:05:32.332Z,6.55
2018-05-13T07:07:59.834Z,6.35
2018-05-13T07:10:27.336Z,6.35
2018-05-13T07:12:54.812Z,5.93
2018-05-13T07:15:22.290Z,6.50
2018-05-13T07:17:50.552Z,6.25
2018-05-13T07:20:18.030Z,6.60
2018-05-13T07:22:46.292Z,7.50
2018-05-13T07:25:13.773Z,6.93
2018-05-13T07:27:42.046Z,5.75
2018-05-13T07:30:10.288Z,5.85
2018-05-13T07:32:37.874Z,7.55
2018-05-13T07:35:06.867Z,7.57
2018-05-13T07:37:35.139Z,8.40
2018-05-13T07:40:03.402Z,8.48
2018-05-13T07:42:30.901Z,7.95
2018-05-13T07:44:59.152Z,8.38
2018-05-13T07:47:26.647Z,8.50
2018-05-13T07:49:54.125Z,9.10
2018-05-13T07:52:21.621Z,9.70
2018-05-13T07:54:49.101Z,8.38
2018-05-13T07:57:17.360Z,8.80
2018-05-13T07:59:44.841Z,9.10
2018-05-13T08:02:13.089Z,9.77
2018-05-13T08:04:40.580Z,9.70
2018-05-13T08:07:08.828Z,11.30
2018-05-13T08:09:36.317Z,9.32
2018-05-13T08:12:04.560Z,9.50
2018-05-13T08:14:32.053Z,9.73
2018-05-13T08:16:59.533Z,8.30
2018-05-13T08:19:27.053Z,9.80
2018-05-13T08:21:54.529Z,9.52
2018-05-13T08:24:22.793Z,10.55
2018-05-13T08:26:51.046Z,10.85
2018-05-13T08:29:18.551Z,10.52
2018-05-13T08:31:46.042Z,10.38
2018-05-13T08:34:13.541Z,9.73
2018-05-13T08:36:42.533Z,10.68
2018-05-13T08:39:10.031Z,10.57
2018-05-13T08:41:37.529Z,10.18
2018-05-13T08:44:05.033Z,11.93
2018-05-13T08:46:33.282Z,10.02
2018-05-13T08:49:00.777Z,9.40
2018-05-13T08:51:28.257Z,9.68
2018-05-13T08:53:55.781Z,9.70
2018-05-13T08:56:23.258Z,10.30
2018-05-13T08:58:50.757Z,10.15
2018-05-13T09:01:18.247Z,10.63
2018-05-13T09:03:45.750Z,10.73
2018-05-13T09:06:13.237Z,10.40
2018-05-13T09:08:40.725Z,10.40
2018-05-13T09:11:08.994Z,9.93
2018-05-13T09:13:37.109Z,10.95
2018-05-13T09:16:05.498Z,11.02
2018-05-13T09:18:32.985Z,10.18
2018-05-13T09:21:00.481Z,9.68
2018-05-13T09:23:28.726Z,9.70
2018-05-13T09:25:56.222Z,9.90
2018-05-13T09:28:24.473Z,9.70
2018-05-13T09:30:51.981Z,8.70
2018-05-13T09:33:19.457Z,9.65
2018-05-13T09:35:46.959Z,9.65
2018-05-13T09:38:14.441Z,9.80
2018-05-13T09:40:42.711Z,9.18
2018-05-13T09:43:10.954Z,9.25
2018-05-13T09:45:38.462Z,10.65
2018-05-13T09:48:05.948Z,9.60
2018-05-13T09:50:33.454Z,10.13
2018-05-13T09:53:00.937Z,10.05
2018-05-13T09:55:29.210Z,10.65
2018-05-13T09:57:57.456Z,10.98
2018-05-13T10:00:24.969Z,10.88
2018-05-13T10:02:52.464Z,10.13
2018-05-13T10:05:19.961Z,10.35
2018-05-13T10:07:48.215Z,10.88
2018-05-13T10:10:15.716Z,11.35
2018-05-13T10:12:43.193Z,11.10
2018-05-13T10:15:10.698Z,10.63
2018-05-13T10:17:38.177Z,11.20
2018-05-13T10:20:06.452Z,11.70
2018-05-13T10:22:34.703Z,12.75
2018-05-13T10:25:02.192Z,13.20
2018-05-13T10:27:30.474Z,12.20
2018-05-13T10:29:57.961Z,12.45
2018-05-13T10:32:25.470Z,13.70
2018-05-13T10:34:52.952Z,14.38
2018-05-13T10:37:21.225Z,13.98
2018-05-13T10:39:48.715Z,14.50
2018-05-13T10:42:16.270Z,14.10
2018-05-13T10:44:43.750Z,14.13
2018-05-13T10:47:11.254Z,13.35
2018-05-13T10:49:39.505Z,12.10
2018-05-13T10:52:07.029Z,14.48
2018-05-13T10:54:34.514Z,13.55
2018-05-13T10:57:02.017Z,12.50
2018-05-13T10:59:30.270Z,13.30
2018-05-13T11:01:57.785Z,13.73
2018-05-13T11:04:25.270Z,13.77
2018-05-13T11:06:52.769Z,13.75
2018-05-13T11:09:21.027Z,13.65
2018-05-13T11:11:48.531Z,14.18
2018-05-13T11:14:16.014Z,13.48
2018-05-13T11:16:43.513Z,14.40
2018-05-13T11:19:11.760Z,14.90
2018-05-13T11:21:39.261Z,14.90
2018-05-13T11:24:07.531Z,14.30
2018-05-13T11:26:35.800Z,15.05
2018-05-13T11:29:03.278Z,13.73
2018-05-13T11:31:31.526Z,14.43
2018-05-13T11:33:59.033Z,16.15
2018-05-13T11:36:26.529Z,14.63
2018-05-13T11:38:54.801Z,16.23
2018-05-13T11:41:22.280Z,16.10
2018-05-13T11:43:49.778Z,15.20
2018-05-13T11:46:18.035Z,14.90
2018-05-13T11:48:46.309Z,15.65
2018-05-13T11:51:14.577Z,17.77
2018-05-13T11:53:42.085Z,15.52
2018-05-13T11:56:09.565Z,16.90
2018-05-13T11:58:37.829Z,15.95
2018-05-13T12:01:05.313Z,16.40
2018-05-13T12:03:32.812Z,16.45
2018-05-13T12:06:01.062Z,16.98
2018-05-13T12:08:28.573Z,16.30
2018-05-13T12:10:56.058Z,16.50
2018-05-13T12:13:23.560Z,16.65
2018-05-13T12:15:51.813Z,17.15
2018-05-13T12:18:19.308Z,18.77
2018-05-13T12:20:46.794Z,17.60
2018-05-13T12:23:14.305Z,17.08
2018-05-13T12:25:41.849Z,18.55
2018-05-13T12:28:09.303Z,17.42
2018-05-13T12:30:36.794Z,16.37
2018-05-13T12:33:05.095Z,15.88
2018-05-13T12:35:32.586Z,16.58
2018-05-13T12:38:00.105Z,17.70
2018-05-13T12:40:27.602Z,17.87
2018-05-13T12:42:55.083Z,16.15
2018-05-13T12:45:22.585Z,15.05
2018-05-13T12:47:50.069Z,16.65
2018-05-13T12:50:17.566Z,15.63
2018-05-13T12:52:45.045Z,15.18
2018-05-13T12:55:13.313Z,16.70
2018-05-13T12:57:41.561Z,16.48
2018-05-13T13:00:09.061Z,14.95
2018-05-13T13:02:37.304Z,14.75
2018-05-13T13:05:04.804Z,14.38
2018-05-13T13:07:33.154Z,15.75
2018-05-13T13:10:01.353Z,14.15
2018-05-13T13:12:29.601Z,15.50
2018-05-13T13:14:57.105Z,14.82
2018-05-13T13:17:24.582Z,14.45
2018-05-13T13:19:52.077Z,14.18
2018-05-13T13:22:19.560Z,13.88
2018-05-13T13:24:47.825Z,15.73
2018-05-13T13:27:15.305Z,14.45
2018-05-13T13:29:43.569Z,17.27
2018-05-13T13:32:11.816Z,17.30
2018-05-13T13:34:39.320Z,15.02
2018-05-13T13:37:07.569Z,16.52
2018-05-13T13:39:35.065Z,15.30
2018-05-13T13:42:03.305Z,16.58
2018-05-13T13:44:30.813Z,16.35
2018-05-13T13:46:58.293Z,19.00
2018-05-13T13:49:25.801Z,19.02
2018-05-13T13:51:54.052Z,18.42
2018-05-13T13:54:21.550Z,16.52
2018-05-13T13:56:49.038Z,18.42
2018-05-13T13:59:16.537Z,19.52
2018-05-13T14:01:44.022Z,20.52
2018-05-13T14:04:11.525Z,17.10
2018-05-13T14:06:39.029Z,18.15
2018-05-13T14:09:07.279Z,19.87
2018-05-13T14:11:34.777Z,18.77
2018-05-13T14:14:03.028Z,15.52
2018-05-13T14:16:30.532Z,16.83
2018-05-13T14:18:58.017Z,16.48
2018-05-13T14:21:25.518Z,15.57
2018-05-13T14:23:53.031Z,16.90
2018-05-13T14:26:20.513Z,15.90
2018-05-13T14:28:47.992Z,14.82
2018-05-13T14:31:16.269Z,16.75
2018-05-13T14:33:43.753Z,17.58
2018-05-13T14:36:12.017Z,14.75
2018-05-13T14:38:40.269Z,15.73
2018-05-13T14:41:07.868Z,14.65
2018-05-13T14:43:35.274Z,16.12
2018-05-13T14:46:02.774Z,14.75
2018-05-13T14:48:31.025Z,15.15
2018-05-13T14:50:58.531Z,14.65
2018-05-13T14:53:26.014Z,16.25
2018-05-13T14:55:53.509Z,15.55
2018-05-13T14:58:21.762Z,15.15
2018-05-13T15:00:49.257Z,14.05
2018-05-13T15:03:17.509Z,14.55
2018-05-13T15:05:45.029Z,14.93
2018-05-13T15:08:12.514Z,15.00
2018-05-13T15:10:40.002Z,15.50
2018-05-13T15:13:08.281Z,15.38
2018-05-13T15:15:35.761Z,13.85
2018-05-13T15:18:04.025Z,13.80
2018-05-13T15:20:32.284Z,14.40
2018-05-13T15:22:59.780Z,14.38
2018-05-13T15:25:27.257Z,13.88
2018-05-13T15:27:54.763Z,15.05
2018-05-13T15:30:22.261Z,14.40
2018-05-13T15:32:49.772Z,13.95
2018-05-13T15:35:17.263Z,13.57
2018-05-13T15:37:45.545Z,13.13
2018-05-13T15:40:13.796Z,14.15
2018-05-13T15:42:41.348Z,13.50
2018-05-13T15:45:08.789Z,13.62
2018-05-13T15:47:36.288Z,13.85
2018-05-13T15:50:04.543Z,13.48
2018-05-13T15:52:32.293Z,13.82
2018-05-13T15:54:59.836Z,13.20
2018-05-13T15:57:28.048Z,13.18
2018-05-13T15:59:55.547Z,15.10
2018-05-13T16:02:23.058Z,14.23
2018-05-13T16:04:50.553Z,14.45
2018-05-13T16:07:18.847Z,14.13
2018-05-13T16:09:47.089Z,13.38
2018-05-13T16:12:14.614Z,15.13
2018-05-13T16:14:42.091Z,13.25
2018-05-13T16:17:09.596Z,13.77
2018-05-13T16:19:37.842Z,13.60
2018-05-13T16:22:05.348Z,13.45
2018-05-13T16:24:32.847Z,13.60
2018-05-13T16:27:00.324Z,13.15
2018-05-13T16:29:27.829Z,12.90
2018-05-13T16:31:55.319Z,13.98
2018-05-13T16:34:22.813Z,13.95
2018-05-13T16:36:51.069Z,12.77
2018-05-13T16:39:18.565Z,12.13
2018-05-13T16:41:46.057Z,12.75
2018-05-13T16:44:13.568Z,12.95
2018-05-13T16:46:41.818Z,13.18
2018-05-13T16:49:09.313Z,12.90
2018-05-13T16:51:37.565Z,13.20
2018-05-13T16:54:05.837Z,13.20
2018-05-13T16:56:33.324Z,12.40
2018-05-13T16:59:01.600Z,13.27
2018-05-13T17:01:29.855Z,11.50
2018-05-13T17:03:57.359Z,11.93
2018-05-13T17:06:24.852Z,12.05
2018-05-13T17:08:52.352Z,12.63
2018-05-13T17:11:20.610Z,12.98
2018-05-13T17:13:48.104Z,12.43
2018-05-13T17:16:15.591Z,12.30
2018-05-13T17:18:43.140Z,12.85
2018-05-13T17:21:10.634Z,12.80
2018-05-13T17:23:38.235Z,13.70
2018-05-13T17:26:05.633Z,13.88
2018-05-13T17:28:33.136Z,12.85
2018-05-13T17:31:01.387Z,14.65
2018-05-13T17:33:28.897Z,14.87
2018-05-13T17:35:56.428Z,13.68
2018-05-13T17:38:23.920Z,13.00
2018-05-13T17:40:51.426Z,13.00
2018-05-13T17:43:18.918Z,13.20
2018-05-13T17:45:47.189Z,12.07
2018-05-13T17:48:16.177Z,12.23
2018-05-13T17:50:44.456Z,11.95
2018-05-13T17:53:12.781Z,13.15
2018-05-13T17:55:40.296Z,13.45
2018-05-13T17:58:08.619Z,12.60
2018-05-13T18:00:36.120Z,13.52
2018-05-13T18:03:03.631Z,12.25
2018-05-13T18:05:31.199Z,13.75
2018-05-13T18:07:58.630Z,12.57
2018-05-13T18:10:26.133Z,13.10
2018-05-13T18:12:53.629Z,11.70
2018-05-13T18:15:21.133Z,14.07
2018-05-13T18:17:48.628Z,13.07
2018-05-13T18:20:16.248Z,13.15
2018-05-13T18:22:43.741Z,14.50
2018-05-13T18:25:11.250Z,13.70
2018-05-13T18:27:39.498Z,13.62
2018-05-13T18:30:07.001Z,13.60
2018-05-13T18:32:34.493Z,14.35
2018-05-13T18:35:01.994Z,15.02
2018-05-13T18:37:30.255Z,13.02
2018-05-13T18:39:57.756Z,14.52
2018-05-13T18:42:25.241Z,14.63
2018-05-13T18:44:52.741Z,13.55
2018-05-13T18:47:20.997Z,14.70
2018-05-13T18:49:48.476Z,14.25
2018-05-13T18:52:16.739Z,15.98
2018-05-13T18:54:44.221Z,13.93
2018-05-13T18:57:12.494Z,16.62
2018-05-13T18:59:40.755Z,14.27
2018-05-13T19:02:08.256Z,14.80
2018-05-13T19:04:35.740Z,15.05
2018-05-13T19:07:03.233Z,15.52
2018-05-13T19:09:30.715Z,14.87
2018-05-13T19:11:59.088Z,14.85
2018-05-13T19:14:26.490Z,15.45
2018-05-13T19:16:53.991Z,14.25
2018-05-13T19:19:21.477Z,13.80
2018-05-13T19:21:49.749Z,14.63
2018-05-13T19:24:17.997Z,13.93
2018-05-13T19:26:45.499Z,14.68
2018-05-13T19:29:12.987Z,27.42
2018-05-13T19:31:40.497Z,15.63
2018-05-13T19:34:08.754Z,13.00
2018-05-13T19:36:36.290Z,15.38
2018-05-13T19:39:03.759Z,13.40
2018-05-13T19:41:31.261Z,15.55
2018-05-13T19:43:58.740Z,15.13
2018-05-13T19:46:26.238Z,14.63
2018-05-13T19:48:53.725Z,14.32
2018-05-13T19:51:22.013Z,14.35
2018-05-13T19:53:50.262Z,14.15
2018-05-13T19:56:17.742Z,13.13
2018-05-13T19:58:46.018Z,13.60
2018-05-13T20:01:14.277Z,12.75
2018-05-13T20:03:41.800Z,14.57
2018-05-13T20:06:09.277Z,13.13
2018-05-13T20:08:36.778Z,13.88
2018-05-13T20:11:05.025Z,13.80
2018-05-13T20:13:32.527Z,12.98
2018-05-13T20:16:00.011Z,12.07
2018-05-13T20:18:27.513Z,13.48
2018-05-13T20:20:54.993Z,14.13
2018-05-13T20:23:25.924Z,13.88
2018-05-13T20:25:53.369Z,14.55
2018-05-13T20:28:20.864Z,13.15
2018-05-13T20:30:48.351Z,12.20
2018-05-13T20:33:15.845Z,12.25
2018-05-13T20:35:43.324Z,12.35
2018-05-13T20:38:11.601Z,11.95
2018-05-13T20:40:39.849Z,11.35
2018-05-13T20:43:07.352Z,12.25
2018-05-13T20:45:35.611Z,11.63
2018-05-13T20:48:03.149Z,11.00
2018-05-13T20:50:30.638Z,11.25
2018-05-13T20:52:58.922Z,10.80
2018-05-13T20:55:27.171Z,10.50
2018-05-13T20:57:54.782Z,12.02
2018-05-13T21:00:22.183Z,10.80
2018-05-13T21:02:49.666Z,9.73
2018-05-13T21:05:18.022Z,10.63
2018-05-13T21:07:45.466Z,10.30
2018-05-13T21:10:12.965Z,11.25
2018-05-13T21:12:41.214Z,11.27
2018-05-13T21:15:08.713Z,10.18
2018-05-13T21:17:36.956Z,10.98
2018-05-13T21:20:04.460Z,10.38
2018-05-13T21:22:32.977Z,10.43
2018-05-13T21:25:00.484Z,10.80
2018-05-13T21:27:28.742Z,9.80
2018-05-13T21:29:56.244Z,9.13
2018-05-13T21:32:23.731Z,11.20
2018-05-13T21:34:51.237Z,9.77
2018-05-13T21:37:19.486Z,11.00
2018-05-13T21:39:46.988Z,10.57
2018-05-13T21:42:14.480Z,10.80
2018-05-13T21:44:41.980Z,10.32
2018-05-13T21:47:10.241Z,11.75
2018-05-13T21:49:37.738Z,11.60
2018-05-13T21:52:05.226Z,11.48
2018-05-13T21:54:32.784Z,11.00
2018-05-13T21:57:00.990Z,12.10
2018-05-13T21:59:28.489Z,11.65
2018-05-13T22:01:56.815Z,12.27
2018-05-13T22:04:25.036Z,9.88
2018-05-13T22:06:53.301Z,13.23
2018-05-13T22:09:21.555Z,12.48
2018-05-13T22:11:49.076Z,11.98
2018-05-13T22:14:16.565Z,10.23
2018-05-13T22:16:44.074Z,11.20
2018-05-13T22:19:12.332Z,12.23
2018-05-13T22:21:39.838Z,11.80
2018-05-13T22:24:07.312Z,11.60
2018-05-13T22:26:34.816Z,10.35
2018-05-13T22:29:03.064Z,12.20
2018-05-13T22:31:30.565Z,11.38
2018-05-13T22:33:58.865Z,12.25
2018-05-13T22:36:26.416Z,12.02
2018-05-13T22:38:53.875Z,11.75
2018-05-13T22:41:21.375Z,11.75
2018-05-13T22:43:48.861Z,11.20
2018-05-13T22:46:17.136Z,12.65
2018-05-13T22:48:44.617Z,11.52
2018-05-13T22:51:12.882Z,12.65
2018-05-13T22:53:41.133Z,11.77
2018-05-13T22:56:08.646Z,11.75
2018-05-13T22:58:36.141Z,12.90
2018-05-13T23:01:03.650Z,13.52
2018-05-13T23:03:31.902Z,14.20
2018-05-13T23:05:59.508Z,11.73
2018-05-13T23:08:26.994Z,13.00
2018-05-13T23:10:54.500Z,14.10
2018-05-13T23:13:22.750Z,15.98
2018-05-13T23:15:50.372Z,14.25
2018-05-13T23:18:17.856Z,14.02
2018-05-13T23:20:45.336Z,13.35
2018-05-13T23:23:12.833Z,14.32
2018-05-13T23:25:40.313Z,15.23
2018-05-13T23:28:07.817Z,14.30
2018-05-13T23:30:35.298Z,14.00
2018-05-13T23:33:03.569Z,15.63
2018-05-13T23:35:31.825Z,14.85
2018-05-13T23:37:59.325Z,13.77
2018-05-13T23:40:26.814Z,14.80
2018-05-13T23:42:54.313Z,14.02
2018-05-13T23:45:21.790Z,14.85
2018-05-13T23:47:50.057Z,15.45
2018-05-13T23:50:18.321Z,15.68
2018-05-13T23:52:45.824Z,17.02
2018-05-13T23:55:13.308Z,16.75
2018-05-13T23:57:40.804Z,16.40
